Kezdőlap
METAR-TAF:

METAR-TAF

Repülőterek :

Dzsidda, Szaúd-Arábia

földrajzi szélesség: 21-42N, földrajzi hosszúság: 039-11E, magasság: 15 m

Jelenlegi meteorológiai megfigyelések

A jelentés 47 perccel ezelõtt készült, 13:00 UTC
Nyugat-északnyugati szél 12 kt
Hőmérséklet 31°C
Páratartalom 59%
Légköri nyomás 1007 hPa
Látótávolság 10 km, vagy több
Kevés felhő 3500 lábon

METAR: OEJN 191300Z 29012KT 9999 FEW035 31/22 Q1007 NOSIG

Idő: 16:47 (13:47 UTC)

Előrejelzés

A jelentés 2 órával és 47 perccel ezelõtt készült, 11:00 UTC
Az előrejelzés 19-én 12 óra UTC és 20-én 18 óra UTC között érvényes
Nyugati szél 8 kt széllökések: 18 kt
Látótávolság: 7000 m
Kevés felhő 4000 lábon
19-én 17 óra UTC és 19-én 19 óra UTC között fokozatosan kialakuló
Észak-északkeleti szél 8 kt

TAF: OEJN 191100Z 1912/2018 28008G18KT 7000 FEW040 BECMG 1917/1919 03008KT

Meteorológiai megfigyelések és előrejelzések több, mint 4000 repülőtéren (METAR és TAF jelentéseket).

A térképen piros és sárga pontok jelzik az elérhető meteorológiai állomásokat.

Mozgassa az egeret a pont fölött, hogy megjelenjen az állomás neve.

Azután kattintson az időjárási megfigyelések és előrejelzések megtekintéséhez.

A térkép megváltoztatása: kattintson a fekete keresztel jelölt zöld gombra ráközelítéshez, a vonallal jelölt zöld gombra távolításhoz, vagy a zöld nyilakra a szomszédos térképek eléréséhez.


METAR-TAF: